Los Fresnos, Texas
Current Conditions -  °F | °C
As of 5:53 PM on Friday 24 Oct 2014 (Local Time) from KPIL Reporting Station
Few Clouds Few Clouds  
Wind Chill: 79°   Ceiling: Unl
Heat Index: 81°   Visibility: 7mi
Dew Point: 63°   Wind: 9mph
Humidity: 58%   Direction: 40°NE
Pressure: 30.07"   Gusts: NA
Location:  26.07°N, 97.48°W
Report Text: KPIL 242253Z AUTO 04008KT 7SM FEW034 26/17 A3007 RMK AO2 SLP183 T02610172
Loading
Personal Weather Stations






























Interactive Weather Map
Tropical Storm Tracking
New forecast layout! Learn more

10-Day Weather Forecast

Advertisements
Track Severe Weather on mobile